createdAt,value
2018-09-12T00:02:22.950Z,12.50
2018-09-12T00:04:50.719Z,12.50
2018-09-12T00:07:18.531Z,12.50
2018-09-12T00:09:46.492Z,12.50
2018-09-12T00:12:14.394Z,12.40
2018-09-12T00:14:42.152Z,12.40
2018-09-12T00:17:09.962Z,12.40
2018-09-12T00:19:37.929Z,12.40
2018-09-12T00:22:06.652Z,12.40
2018-09-12T00:24:34.771Z,12.40
2018-09-12T00:27:02.577Z,12.40
2018-09-12T00:29:30.338Z,12.40
2018-09-12T00:31:58.181Z,12.40
2018-09-12T00:34:25.646Z,12.30
2018-09-12T00:36:53.122Z,12.30
2018-09-12T00:39:20.618Z,12.30
2018-09-12T00:41:48.102Z,12.20
2018-09-12T00:44:15.548Z,12.20
2018-09-12T00:46:43.005Z,12.20
2018-09-12T00:49:10.454Z,12.10
2018-09-12T00:51:38.607Z,12.10
2018-09-12T00:54:06.783Z,12.00
2018-09-12T00:56:35.847Z,12.10
2018-09-12T00:59:03.653Z,12.00
2018-09-12T01:01:31.473Z,12.10
2018-09-12T01:03:59.271Z,12.10
2018-09-12T01:06:27.158Z,12.00
2018-09-12T01:08:54.991Z,12.10
2018-09-12T01:11:23.818Z,12.00
2018-09-12T01:13:52.517Z,12.00
2018-09-12T01:16:20.331Z,12.00
2018-09-12T01:18:48.251Z,12.00
2018-09-12T01:21:16.062Z,11.90
2018-09-12T01:23:44.010Z,11.90
2018-09-12T01:26:11.890Z,11.90
2018-09-12T01:28:39.663Z,11.90
2018-09-12T01:31:07.512Z,11.90
2018-09-12T01:33:35.230Z,11.90
2018-09-12T01:36:03.043Z,11.80
2018-09-12T01:38:30.771Z,11.90
2018-09-12T01:40:58.696Z,11.80
2018-09-12T01:43:26.499Z,11.80
2018-09-12T01:45:54.470Z,11.70
2018-09-12T01:48:22.338Z,11.70
2018-09-12T01:50:50.111Z,11.70
2018-09-12T01:53:17.939Z,11.70
2018-09-12T01:55:45.718Z,11.70
2018-09-12T01:58:13.502Z,11.60
2018-09-12T02:00:41.981Z,11.70
2018-09-12T02:03:10.343Z,11.60
2018-09-12T02:05:38.718Z,11.60
2018-09-12T02:08:07.313Z,11.60
2018-09-12T02:10:35.195Z,11.60
2018-09-12T02:13:03.003Z,11.60
2018-09-12T02:15:30.918Z,11.50
2018-09-12T02:17:58.574Z,11.50
2018-09-12T02:20:26.284Z,11.50
2018-09-12T02:22:54.190Z,11.50
2018-09-12T02:25:21.882Z,11.50
2018-09-12T02:27:49.541Z,11.50
2018-09-12T02:30:17.523Z,11.50
2018-09-12T02:32:45.318Z,11.50
2018-09-12T02:35:13.235Z,11.50
2018-09-12T02:37:40.999Z,11.50
2018-09-12T02:40:09.342Z,11.50
2018-09-12T02:42:37.118Z,11.50
2018-09-12T02:45:05.384Z,11.50
2018-09-12T02:47:38.116Z,11.50
2018-09-12T02:50:09.143Z,11.50
2018-09-12T02:52:37.141Z,11.50
2018-09-12T02:55:05.541Z,11.40
2018-09-12T02:57:33.366Z,11.50
2018-09-12T03:00:01.148Z,11.40
2018-09-12T03:02:28.954Z,11.40
2018-09-12T03:04:56.850Z,11.40
2018-09-12T03:07:24.588Z,11.40
2018-09-12T03:09:52.429Z,11.40
2018-09-12T03:12:20.699Z,11.40
2018-09-12T03:14:48.536Z,11.40
2018-09-12T03:17:16.307Z,11.40
2018-09-12T03:19:44.121Z,11.40
2018-09-12T03:22:11.934Z,11.40
2018-09-12T03:24:39.809Z,11.40
2018-09-12T03:27:07.766Z,11.40
2018-09-12T03:29:38.856Z,11.40
2018-09-12T03:32:06.700Z,11.30
2018-09-12T03:34:34.531Z,11.40
2018-09-12T03:37:02.314Z,11.30
2018-09-12T03:39:40.126Z,11.30
2018-09-12T03:42:09.179Z,11.30
2018-09-12T03:44:38.157Z,11.30
2018-09-12T03:47:07.065Z,11.30
2018-09-12T03:49:34.839Z,11.30
2018-09-12T03:52:02.611Z,11.30
2018-09-12T03:54:34.434Z,11.30
2018-09-12T03:57:03.461Z,11.30
2018-09-12T03:59:31.291Z,11.30
2018-09-12T04:01:59.058Z,11.20
2018-09-12T04:04:27.031Z,11.30
2018-09-12T04:06:54.815Z,11.20
2018-09-12T04:09:22.633Z,11.20
2018-09-12T04:11:50.511Z,11.20
2018-09-12T04:14:18.351Z,11.20
2018-09-12T04:16:46.166Z,11.20
2018-09-12T04:19:14.008Z,11.20
2018-09-12T04:21:41.766Z,11.20
2018-09-12T04:24:10.383Z,11.20
2018-09-12T04:26:38.263Z,11.20
2018-09-12T04:29:06.119Z,11.20
2018-09-12T04:31:34.010Z,11.20
2018-09-12T04:34:01.715Z,11.20
2018-09-12T04:36:29.486Z,11.10
2018-09-12T04:38:57.347Z,11.10
2018-09-12T04:41:25.101Z,11.10
2018-09-12T04:43:53.133Z,11.10
2018-09-12T04:46:20.968Z,11.10
2018-09-12T04:48:48.746Z,11.10
2018-09-12T04:51:16.587Z,11.10
2018-09-12T04:53:44.605Z,11.10
2018-09-12T04:56:12.334Z,11.10
2018-09-12T04:58:40.091Z,11.10
2018-09-12T05:01:07.890Z,11.10
2018-09-12T05:03:35.646Z,11.10
2018-09-12T05:06:03.466Z,11.10
2018-09-12T05:08:31.324Z,11.10
2018-09-12T05:11:01.266Z,11.10
2018-09-12T05:13:33.124Z,11.20
2018-09-12T05:16:01.069Z,11.10
2018-09-12T05:18:30.043Z,11.10
2018-09-12T05:20:57.957Z,11.10
2018-09-12T05:23:26.076Z,11.10
2018-09-12T05:25:53.833Z,11.20
2018-09-12T05:28:21.617Z,11.10
2018-09-12T05:30:49.815Z,11.20
2018-09-12T05:33:17.580Z,11.20
2018-09-12T05:35:45.394Z,11.30
2018-09-12T05:38:13.164Z,11.40
2018-09-12T05:40:40.983Z,11.50
2018-09-12T05:43:08.754Z,11.60
2018-09-12T05:45:36.454Z,11.70
2018-09-12T05:48:04.399Z,11.90
2018-09-12T05:50:32.177Z,12.10
2018-09-12T05:52:59.884Z,12.40
2018-09-12T05:55:27.570Z,12.60
2018-09-12T05:57:55.278Z,12.80
2018-09-12T06:00:23.053Z,12.90
2018-09-12T06:02:51.107Z,12.90
2018-09-12T06:05:18.887Z,13.00
2018-09-12T06:07:46.681Z,13.10
2018-09-12T06:10:14.489Z,13.20
2018-09-12T06:12:42.274Z,13.30
2018-09-12T06:15:10.094Z,13.40
2018-09-12T06:17:37.785Z,13.50
2018-09-12T06:20:05.935Z,13.60
2018-09-12T06:22:33.732Z,13.60
2018-09-12T06:25:01.429Z,13.70
2018-09-12T06:27:29.307Z,13.70
2018-09-12T06:29:57.065Z,13.80
2018-09-12T06:35:34.809Z,14.20
2018-09-12T06:38:02.264Z,14.60
2018-09-12T06:40:30.908Z,14.90
2018-09-12T06:42:58.413Z,15.20
2018-09-12T06:45:25.952Z,15.50
2018-09-12T06:47:53.377Z,15.90
2018-09-12T06:50:20.819Z,16.30
2018-09-12T06:52:48.457Z,16.80
2018-09-12T06:55:15.961Z,17.30
2018-09-12T06:57:44.570Z,17.90
2018-09-12T07:00:12.069Z,18.30
2018-09-12T07:02:40.592Z,18.90
2018-09-12T07:05:08.129Z,19.40
2018-09-12T07:07:35.628Z,19.90
2018-09-12T07:10:04.450Z,20.40
2018-09-12T07:12:33.220Z,20.80
2018-09-12T07:15:01.197Z,21.20
2018-09-12T07:17:29.181Z,21.60
2018-09-12T07:19:57.041Z,22.00
2018-09-12T07:22:25.520Z,22.40
2018-09-12T07:24:53.494Z,22.90
2018-09-12T07:27:22.154Z,23.40
2018-09-12T07:29:50.021Z,23.90
2018-09-12T07:32:18.415Z,24.30
2018-09-12T07:34:46.270Z,24.70
2018-09-12T07:37:15.169Z,25.00
2018-09-12T07:39:42.873Z,25.30
2018-09-12T07:42:10.778Z,25.70
2018-09-12T07:44:38.570Z,25.90
2018-09-12T07:47:06.380Z,26.20
2018-09-12T07:49:34.212Z,26.40
2018-09-12T07:52:02.051Z,26.60
2018-09-12T07:54:29.898Z,26.90
2018-09-12T07:56:57.732Z,27.20
2018-09-12T07:59:33.891Z,27.30
2018-09-12T08:02:07.535Z,27.50
2018-09-12T08:04:35.429Z,27.70
2018-09-12T08:07:05.302Z,28.10
2018-09-12T08:09:33.102Z,28.40
2018-09-12T08:12:00.936Z,28.80
2018-09-12T08:14:28.706Z,28.90
2018-09-12T08:16:56.463Z,29.00
2018-09-12T08:19:30.686Z,29.20
2018-09-12T08:21:58.553Z,29.40
2018-09-12T08:24:27.381Z,29.70
2018-09-12T08:26:56.195Z,30.00
2018-09-12T08:29:27.958Z,30.40
2018-09-12T08:31:56.875Z,30.90
2018-09-12T08:34:24.668Z,31.30
2018-09-12T08:36:53.330Z,31.50
2018-09-12T08:39:24.781Z,31.70
2018-09-12T08:41:52.560Z,32.00
2018-09-12T08:44:20.338Z,32.30
2018-09-12T08:46:48.169Z,32.40
2018-09-12T08:49:18.090Z,32.70
2018-09-12T08:51:50.767Z,32.70
2018-09-12T08:54:19.616Z,32.80
2018-09-12T08:56:48.542Z,32.70
2018-09-12T08:59:28.630Z,32.80
2018-09-12T09:01:56.517Z,32.90
2018-09-12T09:04:24.455Z,32.80
2018-09-12T09:06:53.427Z,32.70
2018-09-12T09:09:21.322Z,32.60
2018-09-12T09:11:49.161Z,32.80
2018-09-12T09:14:27.576Z,33.30
2018-09-12T09:16:55.362Z,33.80
2018-09-12T09:19:23.273Z,34.40
2018-09-12T09:21:53.353Z,34.70
2018-09-12T09:24:21.362Z,34.90
2018-09-12T09:26:59.260Z,35.20
2018-09-12T09:29:27.206Z,35.10
2018-09-12T09:31:56.069Z,35.10
2018-09-12T09:34:24.942Z,35.50
2018-09-12T09:36:52.891Z,35.60
2018-09-12T09:39:20.653Z,35.60
2018-09-12T09:41:48.341Z,35.50
2018-09-12T09:44:22.754Z,35.20
2018-09-12T09:46:50.645Z,35.20
2018-09-12T09:49:18.468Z,35.30
2018-09-12T09:51:46.329Z,35.40
2018-09-12T09:54:14.177Z,35.60
2018-09-12T09:56:42.338Z,35.70
2018-09-12T09:59:14.193Z,35.90
2018-09-12T10:01:47.790Z,36.00
2018-09-12T10:04:21.200Z,36.10
2018-09-12T10:06:54.761Z,36.50
2018-09-12T10:09:29.313Z,36.80
2018-09-12T10:11:57.273Z,37.00
2018-09-12T10:14:25.077Z,37.20
2018-09-12T10:16:52.866Z,36.80
2018-09-12T10:19:20.665Z,37.00
2018-09-12T10:21:58.446Z,37.10
2018-09-12T10:24:26.234Z,37.30
2018-09-12T10:26:53.939Z,37.40
2018-09-12T10:29:21.731Z,37.30
2018-09-12T10:31:49.445Z,37.60
2018-09-12T10:34:17.223Z,37.70
2018-09-12T10:36:44.986Z,37.70
2018-09-12T10:39:13.521Z,37.70
2018-09-12T10:41:41.993Z,37.80
2018-09-12T10:44:09.739Z,38.00
2018-09-12T10:46:37.584Z,38.00
2018-09-12T10:49:05.683Z,38.00
2018-09-12T10:54:33.194Z,38.00
2018-09-12T10:57:01.370Z,38.20
2018-09-12T10:59:37.460Z,38.20
2018-09-12T11:02:05.432Z,37.80
2018-09-12T11:04:33.336Z,37.30
2018-09-12T11:07:11.513Z,37.30
2018-09-12T11:09:49.338Z,37.20
2018-09-12T11:12:17.101Z,37.10
2018-09-12T11:14:44.890Z,36.70
2018-09-12T11:17:12.702Z,36.80
2018-09-12T11:19:40.492Z,36.90
2018-09-12T11:22:15.886Z,37.20
2018-09-12T11:24:43.749Z,37.40
2018-09-12T11:27:11.471Z,37.70
2018-09-12T11:29:39.296Z,37.90
2018-09-12T11:32:07.034Z,37.90
2018-09-12T11:34:34.838Z,37.80
2018-09-12T11:37:02.641Z,37.70
2018-09-12T11:39:55.382Z,37.40
2018-09-12T11:42:23.110Z,37.40
2018-09-12T11:44:50.848Z,37.00
2018-09-12T11:47:18.573Z,36.90
2018-09-12T11:49:46.348Z,36.70
2018-09-12T11:52:14.088Z,36.70
2018-09-12T11:54:41.893Z,36.80
2018-09-12T11:57:09.614Z,37.10
2018-09-12T11:59:37.357Z,37.40
2018-09-12T12:02:05.244Z,37.80
2018-09-12T12:04:32.989Z,38.10
2018-09-12T12:07:00.806Z,38.20
2018-09-12T12:09:28.939Z,38.30
2018-09-12T12:11:56.665Z,38.20
2018-09-12T12:14:29.375Z,38.40
2018-09-12T12:17:03.487Z,38.40
2018-09-12T12:19:41.073Z,38.60
2018-09-12T12:22:13.219Z,38.60
2018-09-12T12:24:47.121Z,38.80
2018-09-12T12:27:19.249Z,38.60
2018-09-12T12:29:47.257Z,38.10
2018-09-12T12:32:15.626Z,37.90
2018-09-12T12:37:54.098Z,38.30
2018-09-12T12:40:22.354Z,38.60
2018-09-12T12:43:03.193Z,38.60
2018-09-12T12:45:31.035Z,38.60
2018-09-12T12:48:03.593Z,38.50
2018-09-12T12:50:31.360Z,38.10
2018-09-12T12:53:01.462Z,38.00
2018-09-12T12:55:35.932Z,38.00
2018-09-12T12:58:04.898Z,38.20
2018-09-12T13:00:33.028Z,38.40
2018-09-12T13:03:00.963Z,38.40
2018-09-12T13:05:37.391Z,38.30
2018-09-12T13:08:05.416Z,38.20
2018-09-12T13:10:33.239Z,38.20
2018-09-12T13:13:15.575Z,38.00
2018-09-12T13:15:47.360Z,37.80
2018-09-12T13:18:22.960Z,37.90
2018-09-12T13:20:50.910Z,38.00
2018-09-12T13:23:19.063Z,38.10
2018-09-12T13:25:47.177Z,38.40
2018-09-12T13:28:32.318Z,38.60
2018-09-12T13:31:01.272Z,38.90
2018-09-12T13:33:34.237Z,38.90
2018-09-12T13:36:06.108Z,38.60
2018-09-12T13:38:37.778Z,38.20
2018-09-12T13:41:13.288Z,37.70
2018-09-12T13:43:55.036Z,37.40
2018-09-12T13:46:27.516Z,37.40
2018-09-12T13:49:07.202Z,37.60
2018-09-12T13:51:35.891Z,37.60
2018-09-12T13:54:11.326Z,37.50
2018-09-12T13:56:39.323Z,37.20
2018-09-12T13:59:07.880Z,36.50
2018-09-12T14:01:38.122Z,35.80
2018-09-12T14:04:06.608Z,35.40
2018-09-12T14:06:34.607Z,35.00
2018-09-12T14:09:05.289Z,34.70
2018-09-12T14:11:33.627Z,34.40
2018-09-12T14:14:01.354Z,33.90
2018-09-12T14:16:31.395Z,33.70
2018-09-12T14:18:59.466Z,33.50
2018-09-12T14:21:27.593Z,33.50
2018-09-12T14:23:55.480Z,33.60
2018-09-12T14:26:23.657Z,33.50
2018-09-12T14:28:51.632Z,33.40
2018-09-12T14:31:19.682Z,33.20
2018-09-12T14:33:48.639Z,33.10
2018-09-12T14:36:17.108Z,33.00
2018-09-12T14:38:44.911Z,32.80
2018-09-12T14:41:14.385Z,32.80
2018-09-12T14:43:42.332Z,32.70
2018-09-12T14:46:10.122Z,32.80
2018-09-12T14:48:38.072Z,32.80
2018-09-12T14:51:09.426Z,32.80
2018-09-12T14:53:37.874Z,32.90
2018-09-12T14:56:05.770Z,32.80
2018-09-12T14:58:33.868Z,32.70
2018-09-12T15:01:01.616Z,32.60
2018-09-12T15:03:29.522Z,32.30
2018-09-12T15:05:57.900Z,32.10
2018-09-12T15:08:25.631Z,32.00
2018-09-12T15:18:55.867Z,31.90
2018-09-12T15:21:23.749Z,31.70
2018-09-12T15:23:51.587Z,31.30
2018-09-12T15:26:19.377Z,31.20
2018-09-12T15:28:47.380Z,31.20
2018-09-12T15:31:15.447Z,31.10
2018-09-12T15:33:43.703Z,30.90
2018-09-12T15:36:12.091Z,30.80
2018-09-12T15:38:40.172Z,30.70
2018-09-12T15:41:07.969Z,30.60
2018-09-12T15:43:35.767Z,30.50
2018-09-12T15:46:03.551Z,30.40
2018-09-12T15:48:31.473Z,30.30
2018-09-12T15:50:59.266Z,30.20
2018-09-12T15:53:28.221Z,30.10
2018-09-12T15:55:56.210Z,30.00
2018-09-12T15:58:24.075Z,29.90
2018-09-12T16:00:52.179Z,29.70
2018-09-12T16:03:20.145Z,29.60
2018-09-12T16:05:47.922Z,29.50
2018-09-12T16:08:16.125Z,29.50
2018-09-12T16:10:44.111Z,29.30
2018-09-12T16:13:12.474Z,29.20
2018-09-12T16:15:40.806Z,29.10
2018-09-12T16:18:08.832Z,29.00
2018-09-12T16:20:37.184Z,29.00
2018-09-12T16:23:05.202Z,28.90
2018-09-12T16:25:32.880Z,28.90
2018-09-12T16:28:00.647Z,28.80
2018-09-12T16:30:28.531Z,28.80
2018-09-12T16:32:56.593Z,28.70
2018-09-12T16:35:24.616Z,28.60
2018-09-12T16:37:52.429Z,28.50
2018-09-12T16:40:20.301Z,28.50
2018-09-12T16:42:48.231Z,28.30
2018-09-12T16:45:16.783Z,28.20
2018-09-12T16:47:44.922Z,28.10
2018-09-12T16:50:12.991Z,28.00
2018-09-12T16:52:40.874Z,27.90
2018-09-12T16:55:08.813Z,27.90
2018-09-12T16:57:37.928Z,27.70
2018-09-12T17:00:05.959Z,27.60
2018-09-12T17:02:34.131Z,27.50
2018-09-12T17:05:01.945Z,27.40
2018-09-12T17:07:29.803Z,27.30
2018-09-12T17:09:58.146Z,27.20
2018-09-12T17:12:29.424Z,27.00
2018-09-12T17:14:57.581Z,26.90
2018-09-12T17:17:25.765Z,26.70
2018-09-12T17:19:53.751Z,26.60
2018-09-12T17:22:23.637Z,26.40
2018-09-12T17:24:51.375Z,26.30
2018-09-12T17:27:19.234Z,26.10
2018-09-12T17:29:47.330Z,26.00
2018-09-12T17:32:17.627Z,25.80
2018-09-12T17:34:45.380Z,25.60
2018-09-12T17:37:13.126Z,25.40
2018-09-12T17:39:41.956Z,25.30
2018-09-12T17:42:23.711Z,25.10
2018-09-12T17:44:51.570Z,25.00
2018-09-12T17:47:19.348Z,24.80
2018-09-12T17:49:47.366Z,24.60
2018-09-12T17:52:34.354Z,24.50
2018-09-12T17:55:08.074Z,24.40
2018-09-12T17:57:38.197Z,24.20
2018-09-12T18:00:11.610Z,24.00
2018-09-12T18:02:40.311Z,23.90
2018-09-12T18:05:08.237Z,23.70
2018-09-12T18:07:36.033Z,23.50
2018-09-12T18:10:03.931Z,23.40
2018-09-12T18:12:31.745Z,23.20
2018-09-12T18:14:59.649Z,23.00
2018-09-12T18:17:27.789Z,22.90
2018-09-12T18:19:59.107Z,22.70
2018-09-12T18:22:27.442Z,22.60
2018-09-12T18:24:55.306Z,22.50
2018-09-12T18:27:23.210Z,22.30
2018-09-12T18:29:51.651Z,22.20
2018-09-12T18:32:20.246Z,22.00
2018-09-12T18:34:48.325Z,21.90
2018-09-12T18:40:21.946Z,21.60
2018-09-12T18:42:49.446Z,21.50
2018-09-12T18:45:16.967Z,21.40
2018-09-12T18:47:45.377Z,21.30
2018-09-12T18:50:12.873Z,21.20
2018-09-12T18:52:40.868Z,21.00
2018-09-12T18:55:08.575Z,21.00
2018-09-12T18:57:36.292Z,20.90
2018-09-12T19:00:04.317Z,20.80
2018-09-12T19:02:32.064Z,20.70
2018-09-12T19:04:59.865Z,20.60
2018-09-12T19:07:27.642Z,20.50
2018-09-12T19:23:34.178Z,20.30
2018-09-12T19:26:01.708Z,19.90
2018-09-12T19:28:29.141Z,19.80
2018-09-12T19:30:56.604Z,19.70
2018-09-12T19:33:24.041Z,19.60
2018-09-12T19:35:51.668Z,19.60
2018-09-12T19:38:19.053Z,19.60
2018-09-12T19:40:46.509Z,19.50
2018-09-12T19:43:13.938Z,19.40
2018-09-12T19:45:41.369Z,19.40
2018-09-12T19:48:08.805Z,19.40
2018-09-12T19:50:36.873Z,19.30
2018-09-12T19:53:11.353Z,19.20
2018-09-12T19:55:39.861Z,19.10
2018-09-12T19:58:07.329Z,19.10
2018-09-12T20:00:34.806Z,19.00
2018-09-12T20:03:02.253Z,18.90
2018-09-12T20:05:29.801Z,18.90
2018-09-12T20:07:57.306Z,18.80
2018-09-12T20:10:28.655Z,18.80
2018-09-12T20:12:57.211Z,18.70
2018-09-12T20:15:24.661Z,18.70
2018-09-12T20:17:52.113Z,18.60
2018-09-12T20:20:19.602Z,18.60
2018-09-12T20:22:47.054Z,18.50
2018-09-12T20:25:14.527Z,18.40
2018-09-12T20:27:41.969Z,18.40
2018-09-12T20:30:09.644Z,18.30
2018-09-12T20:32:38.474Z,18.20
2018-09-12T20:35:06.358Z,18.20
2018-09-12T20:37:34.202Z,18.10
2018-09-12T20:40:01.986Z,18.10
2018-09-12T20:42:29.725Z,18.00
2018-09-12T20:44:57.555Z,18.00
2018-09-12T20:47:25.301Z,17.90
2018-09-12T20:49:53.112Z,17.80
2018-09-12T20:52:21.650Z,17.80
2018-09-12T20:54:49.382Z,17.70
2018-09-12T20:57:20.178Z,17.70
2018-09-12T20:59:48.039Z,17.60
2018-09-12T21:02:15.798Z,17.60
2018-09-12T21:04:43.507Z,17.50
2018-09-12T21:07:11.579Z,17.50
2018-09-12T21:09:39.551Z,17.50
2018-09-12T21:12:07.396Z,17.50
2018-09-12T21:14:36.302Z,17.50
2018-09-12T21:17:04.066Z,17.50
2018-09-12T21:19:31.870Z,17.40
2018-09-12T21:21:59.582Z,17.40
2018-09-12T21:24:27.467Z,17.30
2018-09-12T21:26:55.144Z,17.30
2018-09-12T21:29:23.001Z,17.30
2018-09-12T21:31:50.698Z,17.30
2018-09-12T21:34:18.846Z,17.20
2018-09-12T21:36:46.664Z,17.20
2018-09-12T21:39:14.438Z,17.20
2018-09-12T21:41:42.176Z,17.30
2018-09-12T21:44:09.934Z,17.20
2018-09-12T21:46:38.322Z,17.30
2018-09-12T21:49:06.107Z,17.30
2018-09-12T21:51:33.854Z,17.30
2018-09-12T21:54:02.735Z,17.40
2018-09-12T21:56:30.538Z,17.50
2018-09-12T21:58:58.422Z,17.60
2018-09-12T22:01:30.498Z,17.60
2018-09-12T22:03:58.594Z,17.70
2018-09-12T22:06:27.479Z,17.90
2018-09-12T22:09:00.246Z,18.10
2018-09-12T22:11:29.020Z,18.30
2018-09-12T22:13:56.829Z,18.50
2018-09-12T22:16:24.598Z,18.60
2018-09-12T22:18:52.370Z,18.70
2018-09-12T22:21:21.248Z,18.70
2018-09-12T22:23:49.040Z,18.80
2018-09-12T22:26:17.047Z,18.90
2018-09-12T22:28:48.726Z,18.90
2018-09-12T22:31:16.526Z,19.00
2018-09-12T22:33:44.297Z,19.00
2018-09-12T22:36:12.350Z,19.00
2018-09-12T22:38:41.174Z,18.90
2018-09-12T22:41:09.126Z,18.90
2018-09-12T22:43:37.010Z,18.90
2018-09-12T22:49:07.434Z,18.80
2018-09-12T22:51:38.454Z,18.80
2018-09-12T22:54:07.370Z,18.70
2018-09-12T22:56:37.299Z,18.70
2018-09-12T22:59:05.130Z,18.70
2018-09-12T23:01:33.007Z,18.60
2018-09-12T23:04:00.788Z,18.50
2018-09-12T23:06:28.637Z,18.50
2018-09-12T23:08:56.410Z,18.50
2018-09-12T23:11:28.835Z,18.40
2018-09-12T23:13:56.755Z,18.50
2018-09-12T23:16:24.858Z,18.40
2018-09-12T23:18:52.938Z,18.40
2018-09-12T23:21:20.955Z,18.40
2018-09-12T23:23:48.751Z,18.30
2018-09-12T23:26:16.699Z,18.20
2018-09-12T23:28:44.439Z,18.10
2018-09-12T23:31:12.186Z,18.00
2018-09-12T23:33:39.974Z,18.00
2018-09-12T23:36:07.846Z,17.90
2018-09-12T23:38:35.848Z,17.90
2018-09-12T23:41:06.716Z,17.80
2018-09-12T23:43:34.553Z,17.80
2018-09-12T23:46:02.382Z,17.80
2018-09-12T23:48:30.167Z,17.70
2018-09-12T23:50:58.023Z,17.70
2018-09-12T23:53:25.797Z,17.70
2018-09-12T23:55:53.550Z,17.60
2018-09-12T23:58:21.327Z,17.60
